Time;durP1;ratioP1;P1;durP2;ratioP2;P2;SDS_P1;SDS_P2;PMS_P1;PMS_P2;Temp;Humidity;BMP_temperature;BMP_pressure;BME280_temperature;BME280_humidity;BME280_pressure;Samples;Min_cycle;Max_cycle;Signal;HPM_P1;HPM_P2
2021/07/12 00:00:34;;;;;;;0.68;0.68;;;;;;;11.10;61.27;97946.63;5114519;28;20038;-64
2021/07/12 00:03:02;;;;;;;0.20;0.20;;;;;;;11.15;60.98;97942.03;5114587;28;20032;-63
2021/07/12 00:05:29;;;;;;;0.10;0.10;;;;;;;11.66;60.07;97940.81;5096259;28;20027;-66
2021/07/12 00:07:55;;;;;;;0.70;0.40;;;;;;;12.69;57.45;97939.50;5114450;28;20109;-63
2021/07/12 00:10:25;;;;;;;0.50;0.50;;;;;;;12.99;56.75;97939.88;5114622;28;20444;-64
2021/07/12 00:12:52;;;;;;;0.60;0.60;;;;;;;13.26;56.23;97945.94;5096786;28;20179;-65
2021/07/12 00:15:19;;;;;;;0.30;0.30;;;;;;;12.87;57.58;97942.88;5114325;28;20078;-64
2021/07/12 00:17:46;;;;;;;0.47;0.47;;;;;;;12.44;58.66;97951.25;5114103;28;20521;-65
2021/07/12 00:20:13;;;;;;;0.20;0.20;;;;;;;12.17;59.50;97941.16;5114329;28;20032;-65
2021/07/12 00:22:40;;;;;;;0.10;0.10;;;;;;;12.03;60.09;97945.50;5095890;28;20496;-64
2021/07/12 00:25:08;;;;;;;0.52;0.52;;;;;;;12.03;60.13;97946.34;5113102;28;20544;-64
2021/07/12 00:27:34;;;;;;;0.50;0.50;;;;;;;12.13;59.64;97945.56;5095945;28;20060;-64
2021/07/12 00:30:01;;;;;;;0.20;0.20;;;;;;;13.47;56.77;97948.75;5114320;28;20069;-64
2021/07/12 00:32:26;;;;;;;0.20;0.20;;;;;;;15.39;52.64;97948.72;5095520;28;20035;-67
2021/07/12 00:34:52;;;;;;;0.17;0.17;;;;;;;17.65;48.15;97947.25;5114238;28;20031;-65
2021/07/12 00:37:18;;;;;;;0.15;0.15;;;;;;;19.29;45.15;97948.03;5113568;28;20468;-64
2021/07/12 00:39:44;;;;;;;0.57;0.57;;;;;;;20.43;43.39;97941.31;5113525;28;20451;-63
2021/07/12 00:42:10;;;;;;;0.17;0.17;;;;;;;21.73;42.06;97939.13;5113810;28;20071;-65
2021/07/12 00:44:36;;;;;;;0.30;0.30;;;;;;;22.90;40.76;97945.38;5113930;28;20477;-66
2021/07/12 00:47:05;;;;;;;0.13;0.13;;;;;;;23.93;39.92;97949.78;5095419;28;20027;-66
2021/07/12 00:49:31;;;;;;;0.10;0.10;;;;;;;24.88;38.75;97942.63;5113623;28;20024;-66
2021/07/12 00:51:57;;;;;;;0.30;0.30;;;;;;;25.61;38.19;97938.09;5114016;28;20108;-67
2021/07/12 00:54:27;;;;;;;0.30;0.30;;;;;;;26.15;38.09;97939.66;5095480;28;20059;-65
2021/07/12 00:56:59;;;;;;;0.10;0.10;;;;;;;26.77;37.64;97948.56;5113500;28;20031;-66
2021/07/12 00:59:26;;;;;;;0.38;0.38;;;;;;;27.13;38.07;97943.78;5095028;28;20043;-67
2021/07/12 01:01:52;;;;;;;1.48;0.75;;;;;;;27.27;38.12;97955.38;5113420;28;20386;-65
2021/07/12 01:04:19;;;;;;;0.30;0.30;;;;;;;27.21;38.51;97956.84;5113513;28;20023;-66
2021/07/12 01:06:45;;;;;;;0.10;0.10;;;;;;;27.08;39.00;97947.69;5113262;28;20038;-64
2021/07/12 01:09:11;;;;;;;0.13;0.13;;;;;;;27.01;39.33;97958.78;5113564;28;20059;-66
2021/07/12 01:11:59;;;;;;;0.47;0.20;;;;;;;27.33;38.79;97955.94;5113470;28;20238;-65
2021/07/12 01:15:06;;;;;;;0.43;0.28;;;;;;;27.37;39.17;97964.47;5113772;28;20032;-65
2021/07/12 01:17:52;;;;;;;0.45;0.20;;;;;;;27.81;38.63;97961.41;5113434;28;20058;-66
2021/07/12 01:20:42;;;;;;;0.10;0.10;;;;;;;27.88;38.62;97967.22;5094969;28;20409;-65
2021/07/12 01:23:29;;;;;;;0.10;0.10;;;;;;;27.49;39.41;97961.56;5113102;28;20040;-66
2021/07/12 01:26:25;;;;;;;0.22;0.22;;;;;;;27.96;38.69;97960.53;5094933;28;20035;-65
2021/07/12 01:29:16;;;;;;;0.10;0.10;;;;;;;28.66;37.55;97961.50;5113205;28;20073;-65
2021/07/12 01:32:26;;;;;;;0.68;0.22;;;;;;;29.15;36.90;97964.72;5113103;28;20065;-66
2021/07/12 01:35:20;;;;;;;0.10;0.10;;;;;;;29.31;36.92;97956.13;5049715;28;20056;-66
2021/07/12 01:37:55;;;;;;;0.25;0.25;;;;;;;29.49;36.80;97962.03;5050719;28;20049;-67
2021/07/12 01:40:53;;;;;;;1.75;0.32;;;;;;;30.14;36.00;97957.22;5050411;28;20119;-66
2021/07/12 01:43:28;;;;;;;0.32;0.17;;;;;;;30.84;35.16;97957.56;5033503;28;20036;-69
2021/07/12 01:46:03;;;;;;;0.10;0.10;;;;;;;31.16;34.72;97954.22;5050577;28;20036;-68
2021/07/12 01:48:55;;;;;;;0.13;0.13;;;;;;;31.15;34.91;97946.91;5050351;28;20033;-69
2021/07/12 01:51:29;;;;;;;0.10;0.10;;;;;;;30.43;35.98;97952.72;5050052;28;20048;-70
2021/07/12 01:54:16;;;;;;;0.10;0.10;;;;;;;30.44;36.44;97970.56;5033363;28;20064;-70
2021/07/12 01:57:04;;;;;;;0.17;0.17;;;;;;;28.27;39.55;97967.22;5050040;28;20094;-67
2021/07/12 02:00:00;;;;;;;0.20;0.20;;;;;;;25.58;44.06;97967.72;5012360;28;20100;-68
2021/07/12 02:02:30;;;;;;;0.32;0.15;;;;;;;23.26;48.16;97969.25;5025302;28;20080;-66
2021/07/12 02:04:59;;;;;;;0.47;0.47;;;;;;;21.86;50.73;97977.25;4996868;28;20041;-66
2021/07/12 02:07:27;;;;;;;0.45;0.45;;;;;;;20.34;53.14;97976.69;5030306;28;20124;-68
2021/07/12 02:09:54;;;;;;;0.55;0.55;;;;;;;19.28;54.28;97982.59;5030188;28;20108;-68
2021/07/12 02:12:21;;;;;;;0.10;0.10;;;;;;;18.55;55.22;97986.81;5070330;28;20044;-67
2021/07/12 02:14:49;;;;;;;0.55;0.55;;;;;;;17.98;55.39;97986.19;5092694;28;20024;-66
2021/07/12 02:17:17;;;;;;;0.10;0.10;;;;;;;17.61;55.47;97987.88;5092579;28;20366;-67
2021/07/12 02:19:47;;;;;;;0.20;0.20;;;;;;;17.49;54.81;97988.31;5092260;28;20405;-66
2021/07/12 02:22:14;;;;;;;0.50;0.50;;;;;;;17.34;54.46;97987.44;5092248;28;20505;-67
2021/07/12 02:24:41;;;;;;;0.35;0.35;;;;;;;17.27;53.88;97994.47;5091341;28;20028;-66
2021/07/12 02:27:08;;;;;;;0.10;0.10;;;;;;;16.89;54.03;97988.88;5073773;28;20028;-67
2021/07/12 02:29:35;;;;;;;1.02;0.55;;;;;;;16.33;54.75;97990.28;5092210;28;20147;-67
2021/07/12 02:32:01;;;;;;;0.10;0.10;;;;;;;16.16;54.64;98007.38;5091827;28;20501;-67
2021/07/12 02:34:27;;;;;;;0.22;0.22;;;;;;;16.07;54.34;97996.09;5086070;28;20048;-65
2021/07/12 02:36:55;;;;;;;0.25;0.25;;;;;;;16.12;53.72;98007.09;5050425;28;20025;-66
2021/07/12 02:39:21;;;;;;;0.30;0.30;;;;;;;16.22;53.24;98000.66;5051612;28;20048;-66
2021/07/12 02:41:48;;;;;;;0.57;0.57;;;;;;;16.36;52.54;98001.63;5051920;28;20398;-67
2021/07/12 02:44:15;;;;;;;0.88;0.50;;;;;;;16.35;52.33;97993.63;5050432;28;20112;-68
2021/07/12 02:46:41;;;;;;;0.38;0.20;;;;;;;16.39;51.86;97995.50;5051872;28;20033;-68
2021/07/12 02:49:08;;;;;;;0.20;0.20;;;;;;;16.44;51.80;97995.47;5055427;28;20409;-65
2021/07/12 02:51:44;;;;;;;0.38;0.38;;;;;;;16.45;51.62;97999.88;5055468;28;20029;-66
2021/07/12 02:54:12;;;;;;;0.65;0.65;;;;;;;16.33;51.54;98012.44;5055370;28;20037;-67
2021/07/12 02:56:38;;;;;;;0.35;0.35;;;;;;;16.26;51.81;98008.09;5053909;28;20075;-65
2021/07/12 02:59:04;;;;;;;0.28;0.28;;;;;;;16.39;51.27;98014.88;5066852;28;20533;-68
2021/07/12 03:01:30;;;;;;;0.10;0.10;;;;;;;16.52;51.10;98015.31;5073210;28;20032;-66
2021/07/12 03:03:56;;;;;;;0.75;0.75;;;;;;;16.67;50.51;98023.47;5072877;28;20052;-70
2021/07/12 03:06:29;;;;;;;0.60;0.50;;;;;;;16.71;50.46;98024.53;5073019;28;20028;-65
2021/07/12 03:09:10;;;;;;;0.22;0.22;;;;;;;16.83;50.05;98018.59;5075413;28;20094;-65
2021/07/12 03:12:06;;;;;;;0.10;0.10;;;;;;;17.16;49.43;98018.75;5074855;28;20037;-70
2021/07/12 03:14:37;;;;;;;0.20;0.20;;;;;;;17.54;48.52;98021.56;5072467;28;20040;-64
2021/07/12 03:17:05;;;;;;;0.10;0.10;;;;;;;17.99;47.84;98015.59;5075290;28;20040;-68
2021/07/12 03:19:33;;;;;;;0.43;0.30;;;;;;;18.37;47.00;98008.03;5073532;28;20032;-64
2021/07/12 03:22:03;;;;;;;0.43;0.43;;;;;;;19.05;46.02;98021.44;5075271;28;20029;-71
2021/07/12 03:24:31;;;;;;;0.20;0.20;;;;;;;19.48;45.07;98018.31;5075015;28;20123;-65
2021/07/12 03:27:00;;;;;;;0.20;0.15;;;;;;;19.81;44.88;98020.09;5073294;28;20032;-65
2021/07/12 03:29:28;;;;;;;0.20;0.20;;;;;;;20.32;44.23;98018.84;5073426;28;20044;-67
2021/07/12 03:31:57;;;;;;;0.20;0.20;;;;;;;20.85;43.33;98019.94;5074584;28;20524;-64
2021/07/12 03:34:24;;;;;;;0.30;0.30;;;;;;;21.18;42.93;98016.75;5108890;28;20059;-62
2021/07/12 03:36:50;;;;;;;0.10;0.10;;;;;;;21.46;42.72;98022.09;5096945;28;20031;-62
2021/07/12 03:39:16;;;;;;;0.13;0.13;;;;;;;21.17;43.43;98015.97;5114787;28;20386;-64
2021/07/12 03:41:43;;;;;;;0.10;0.10;;;;;;;20.98;43.93;98016.22;5114986;28;20170;-62
2021/07/12 03:44:09;;;;;;;0.20;0.20;;;;;;;21.53;43.26;98017.69;5115144;28;20401;-65
2021/07/12 03:46:41;;;;;;;0.10;0.10;;;;;;;22.16;42.13;98010.97;5114887;28;20024;-65
2021/07/12 03:49:15;;;;;;;0.20;0.20;;;;;;;22.63;41.41;98019.44;5114571;28;20035;-66
2021/07/12 03:51:43;;;;;;;0.10;0.10;;;;;;;23.09;40.76;98014.94;5114807;28;20043;-61
2021/07/12 03:54:09;;;;;;;0.17;0.17;;;;;;;23.78;40.24;98021.28;5114221;28;20031;-63
2021/07/12 03:56:35;;;;;;;0.20;0.20;;;;;;;24.35;39.53;98013.41;5115110;28;20503;-61
2021/07/12 03:59:01;;;;;;;0.10;0.10;;;;;;;25.72;37.35;98006.69;5114274;28;20035;-65
2021/07/12 04:01:27;;;;;;;0.30;0.30;;;;;;;27.42;35.30;98007.28;5096151;28;20032;-61
2021/07/12 04:03:55;;;;;;;0.10;0.10;;;;;;;27.54;35.71;98006.34;5114412;28;20027;-63
2021/07/12 04:06:22;;;;;;;0.20;0.20;;;;;;;26.83;37.21;98003.41;5113887;28;20035;-64
2021/07/12 04:08:47;;;;;;;0.20;0.20;;;;;;;26.66;37.67;98004.53;5114465;28;20080;-65
2021/07/12 04:11:15;;;;;;;0.20;0.20;;;;;;;26.10;39.02;98002.59;5114744;28;20414;-61
2021/07/12 04:13:41;;;;;;;0.55;0.20;;;;;;;25.68;39.80;97989.72;5114399;28;20523;-68
2021/07/12 04:16:07;;;;;;;0.10;0.10;;;;;;;25.69;39.92;97990.53;5114199;28;20062;-63
2021/07/12 04:18:34;;;;;;;0.17;0.17;;;;;;;27.67;36.53;97997.78;5114319;28;20066;-63
2021/07/12 04:21:00;;;;;;;0.20;0.20;;;;;;;29.38;34.19;98000.66;5096406;28;20031;-64
2021/07/12 04:23:26;;;;;;;0.13;0.13;;;;;;;30.96;32.33;97996.13;5095854;28;20039;-62
2021/07/12 04:25:52;;;;;;;0.10;0.10;;;;;;;32.01;31.66;97992.84;5114103;28;20039;-64
2021/07/12 04:28:18;;;;;;;0.13;0.13;;;;;;;32.99;30.46;98003.28;5112795;28;20028;-65
2021/07/12 04:30:44;;;;;;;0.10;0.10;;;;;;;34.34;29.88;97996.19;5113921;28;20027;-65
2021/07/12 04:33:10;;;;;;;0.10;0.10;;;;;;;35.55;28.87;97987.97;5095390;28;20051;-65
2021/07/12 04:35:35;;;;;;;0.13;0.13;;;;;;;36.50;27.97;97994.25;5114286;28;20127;-63
2021/07/12 04:38:01;;;;;;;0.20;0.20;;;;;;;37.14;27.76;97991.66;5113577;28;20482;-67
2021/07/12 04:40:27;;;;;;;0.77;0.57;;;;;;;37.50;27.94;97985.31;5095285;28;20024;-63
2021/07/12 04:42:53;;;;;;;0.63;0.63;;;;;;;37.84;27.83;97987.16;5113825;28;20489;-65
2021/07/12 04:45:19;;;;;;;1.13;0.55;;;;;;;37.64;28.08;97987.13;5114152;28;20026;-64
2021/07/12 04:47:45;;;;;;;1.48;0.75;;;;;;;37.59;28.54;97979.84;5113657;28;20032;-65
2021/07/12 04:50:11;;;;;;;0.20;0.20;;;;;;;37.27;29.43;97974.72;5113701;28;20019;-65
2021/07/12 04:52:38;;;;;;;0.25;0.25;;;;;;;37.65;29.19;97971.56;5095849;28;20036;-65
2021/07/12 04:55:06;;;;;;;0.47;0.47;;;;;;;38.07;28.66;97965.44;5113487;28;20160;-64
2021/07/12 04:57:33;;;;;;;0.40;0.40;;;;;;;37.88;28.69;97964.19;5112797;28;20035;-67
2021/07/12 05:00:01;;;;;;;0.30;0.30;;;;;;;37.73;28.86;97963.66;5113440;28;20027;-64
2021/07/12 05:02:27;;;;;;;0.10;0.10;;;;;;;38.04;28.41;97967.09;5091225;28;20035;-65
2021/07/12 05:04:53;;;;;;;0.47;0.47;;;;;;;37.99;28.58;97956.97;5112174;28;20027;-69
2021/07/12 05:07:19;;;;;;;0.30;0.30;;;;;;;37.77;28.88;97959.47;5112873;28;20034;-65
2021/07/12 05:09:45;;;;;;;0.30;0.30;;;;;;;37.86;29.28;97951.09;5112536;28;20024;-66
2021/07/12 05:12:14;;;;;;;0.80;0.70;;;;;;;37.74;29.31;97943.16;5112165;28;20118;-65
2021/07/12 05:14:41;;;;;;;0.10;0.10;;;;;;;37.75;29.17;97950.53;5109985;28;20035;-70
2021/07/12 05:17:09;;;;;;;4.30;0.50;;;;;;;37.41;29.59;97947.88;5112520;28;20028;-70
2021/07/12 05:19:35;;;;;;;0.20;0.15;;;;;;;36.98;29.89;97958.78;5093215;28;20556;-64
2021/07/12 05:22:01;;;;;;;0.10;0.10;;;;;;;37.10;29.77;97945.91;5108765;28;20027;-64
2021/07/12 05:24:27;;;;;;;0.50;0.40;;;;;;;37.22;29.59;97935.91;5111244;28;20037;-64
2021/07/12 05:26:53;;;;;;;0.30;0.30;;;;;;;37.79;29.01;97950.44;5111353;28;20397;-65
2021/07/12 05:29:18;;;;;;;0.40;0.40;;;;;;;38.04;28.49;97947.06;5111103;28;20078;-64
2021/07/12 05:31:46;;;;;;;0.20;0.20;;;;;;;37.74;28.89;97942.34;5109162;28;20031;-63
2021/07/12 05:34:12;;;;;;;0.20;0.20;;;;;;;37.37;29.12;97938.53;5092070;28;20054;-63
2021/07/12 05:36:38;;;;;;;0.20;0.20;;;;;;;37.11;29.32;97938.94;5111351;28;20031;-64
2021/07/12 05:39:04;;;;;;;0.40;0.40;;;;;;;36.32;30.15;97931.59;5091846;28;20521;-63
2021/07/12 05:41:30;;;;;;;0.20;0.20;;;;;;;36.35;30.27;97927.88;5110310;28;20062;-65
2021/07/12 05:43:56;;;;;;;0.13;0.13;;;;;;;36.72;29.44;97928.13;5110044;28;20070;-64
2021/07/12 05:46:22;;;;;;;0.15;0.15;;;;;;;36.89;29.64;97918.47;5110944;28;20028;-64
2021/07/12 05:48:48;;;;;;;0.60;0.15;;;;;;;36.51;29.83;97921.50;5108691;28;20118;-64
2021/07/12 05:51:15;;;;;;;0.93;0.30;;;;;;;36.10;29.68;97920.44;5110870;28;20114;-63
2021/07/12 05:53:41;;;;;;;0.15;0.15;;;;;;;35.02;30.95;97921.59;5111342;28;20059;-63
2021/07/12 05:56:07;;;;;;;0.10;0.10;;;;;;;33.51;32.72;97931.75;5111014;28;20497;-63
2021/07/12 05:58:32;;;;;;;0.20;0.20;;;;;;;31.22;35.62;97935.63;5092713;28;20031;-62
2021/07/12 06:00:58;;;;;;;0.20;0.20;;;;;;;28.81;38.75;97940.00;5093632;28;20403;-63
2021/07/12 06:03:24;;;;;;;0.43;0.43;;;;;;;26.93;41.03;97923.19;5111522;28;20038;-63
2021/07/12 06:05:50;;;;;;;0.52;0.52;;;;;;;25.93;41.97;97922.16;5110417;28;20127;-63
2021/07/12 06:08:16;;;;;;;0.40;0.40;;;;;;;25.11;42.65;97924.13;5110115;28;20436;-63
2021/07/12 06:10:42;;;;;;;0.68;0.65;;;;;;;24.55;42.80;97930.28;5110289;28;20040;-64
2021/07/12 06:13:08;;;;;;;6.22;1.40;;;;;;;23.86;42.97;97931.88;5110543;28;20085;-64
2021/07/12 06:15:34;;;;;;;0.15;0.15;;;;;;;23.40;42.90;97926.16;5109604;28;20035;-63
2021/07/12 06:18:00;;;;;;;0.30;0.30;;;;;;;23.39;42.29;97927.31;5110263;28;20041;-64
2021/07/12 06:20:26;;;;;;;0.10;0.10;;;;;;;23.47;41.24;97928.41;5109888;28;20062;-66
2021/07/12 06:22:52;;;;;;;0.08;0.08;;;;;;;23.51;40.56;97924.59;5111423;28;20118;-61
2021/07/12 06:25:20;;;;;;;0.20;0.17;;;;;;;23.54;40.33;97928.66;5095774;28;20039;-61
2021/07/12 06:27:47;;;;;;;0.10;0.10;;;;;;;23.44;39.95;97919.53;5114178;28;20031;-61
2021/07/12 06:30:13;;;;;;;0.15;0.13;;;;;;;23.33;39.69;97915.47;5113939;28;20024;-60
2021/07/12 06:32:40;;;;;;;0.20;0.20;;;;;;;23.46;39.13;97921.16;5095114;28;20163;-62
2021/07/12 06:35:07;;;;;;;0.22;0.22;;;;;;;23.17;39.33;97914.47;5114216;28;20034;-60
2021/07/12 06:37:33;;;;;;;0.15;0.15;;;;;;;22.97;39.71;97928.06;5113949;28;20066;-61
2021/07/12 06:40:00;;;;;;;0.10;0.10;;;;;;;22.80;39.51;97923.38;5113714;28;20078;-59
2021/07/12 06:42:26;;;;;;;0.20;0.20;;;;;;;22.74;39.67;97930.31;5114274;28;20401;-61
2021/07/12 06:44:57;;;;;;;0.10;0.10;;;;;;;22.55;39.75;97916.75;5095461;28;20035;-61
2021/07/12 06:47:30;;;;;;;0.20;0.20;;;;;;;22.49;39.53;97926.50;5113831;28;20032;-61
2021/07/12 06:49:55;;;;;;;0.30;0.30;;;;;;;22.35;39.85;97933.13;5095223;28;20119;-60
2021/07/12 06:52:21;;;;;;;0.45;0.45;;;;;;;22.24;39.81;97929.00;5113304;28;20114;-60
2021/07/12 06:54:47;;;;;;;1.55;0.30;;;;;;;22.26;39.45;97928.69;5113640;28;20436;-64
2021/07/12 06:57:15;;;;;;;1.65;0.20;;;;;;;22.06;39.51;97925.44;5113800;28;20136;-66
2021/07/12 06:59:41;;;;;;;0.10;0.10;;;;;;;21.69;40.20;97920.25;5113518;28;20561;-65
2021/07/12 07:02:07;;;;;;;0.50;0.43;;;;;;;21.34;40.72;97923.00;5093096;28;20023;-65
2021/07/12 07:04:33;;;;;;;0.43;0.43;;;;;;;21.05;40.99;97936.78;5113778;28;20531;-65
2021/07/12 07:06:58;;;;;;;0.20;0.20;;;;;;;20.90;40.86;97918.53;5095339;28;20378;-67
2021/07/12 07:09:25;;;;;;;0.25;0.25;;;;;;;20.80;41.02;97933.59;5094998;28;20042;-65
2021/07/12 07:11:51;;;;;;;0.10;0.10;;;;;;;20.88;40.51;97918.03;5113838;28;20024;-66
2021/07/12 07:14:17;;;;;;;0.10;0.10;;;;;;;21.02;40.33;97929.06;5114022;28;20488;-66
2021/07/12 07:16:44;;;;;;;0.20;0.20;;;;;;;21.42;39.31;97918.59;5114242;28;20024;-67
2021/07/12 07:19:10;;;;;;;0.20;0.20;;;;;;;21.95;38.43;97922.19;5113777;28;20036;-65
2021/07/12 07:21:36;;;;;;;0.35;0.35;;;;;;;22.16;38.05;97927.09;5113387;28;20055;-68
2021/07/12 07:24:10;;;;;;;0.10;0.10;;;;;;;22.09;37.96;97924.78;5113717;28;20753;-68
2021/07/12 07:26:36;;;;;;;0.20;0.20;;;;;;;21.81;38.50;97927.16;5110605;28;20039;-66
2021/07/12 07:29:02;;;;;;;0.30;0.30;;;;;;;21.52;39.18;97914.66;5113243;28;20073;-66
2021/07/12 07:31:28;;;;;;;0.10;0.10;;;;;;;21.40;38.96;97918.09;5113404;28;20401;-67
2021/07/12 07:33:54;;;;;;;0.10;0.10;;;;;;;21.54;39.12;97909.59;5112380;28;20043;-64
2021/07/12 07:36:20;;;;;;;0.80;0.22;;;;;;;21.80;38.43;97900.34;5112657;28;20031;-66
2021/07/12 07:38:46;;;;;;;0.40;0.40;;;;;;;21.99;38.17;97900.78;5077594;28;20595;-70
2021/07/12 07:41:12;;;;;;;0.55;0.55;;;;;;;22.11;38.17;97907.69;5112636;28;20027;-64
2021/07/12 07:43:37;;;;;;;0.10;0.10;;;;;;;22.23;37.57;97891.84;5112883;28;20438;-65
2021/07/12 07:46:04;;;;;;;0.20;0.20;;;;;;;22.23;37.75;97886.25;5110602;28;20577;-65
2021/07/12 07:48:30;;;;;;;0.10;0.10;;;;;;;22.54;37.20;97892.72;5112569;28;20031;-65
2021/07/12 07:50:56;;;;;;;2.42;0.17;;;;;;;22.84;36.98;97901.16;5112510;28;20623;-65
2021/07/12 07:53:22;;;;;;;0.10;0.10;;;;;;;22.84;37.00;97906.75;5113056;28;20426;-67
2021/07/12 07:55:48;;;;;;;0.10;0.10;;;;;;;22.56;37.35;97894.03;5094085;28;20035;-67
2021/07/12 07:58:14;;;;;;;0.10;0.10;;;;;;;22.20;38.05;97908.47;5112551;28;20114;-66
2021/07/12 08:00:42;;;;;;;0.10;0.10;;;;;;;21.99;38.50;97906.38;5112783;28;20038;-64
2021/07/12 08:03:10;;;;;;;0.55;0.40;;;;;;;21.99;38.52;97881.22;5110692;28;20056;-67
2021/07/12 08:05:38;;;;;;;0.10;0.10;;;;;;;22.23;38.23;97886.25;5093625;28;20043;-66
2021/07/12 08:08:04;;;;;;;0.45;0.45;;;;;;;22.46;37.49;97886.03;5111191;28;20069;-67
2021/07/12 08:10:31;;;;;;;0.10;0.10;;;;;;;22.66;37.47;97880.81;5092814;28;20116;-66
2021/07/12 08:13:02;;;;;;;0.10;0.10;;;;;;;22.83;36.97;97894.72;5111268;28;20027;-66
2021/07/12 08:15:29;;;;;;;0.10;0.10;;;;;;;22.96;37.03;97892.81;5108760;28;20046;-65
2021/07/12 08:17:57;;;;;;;1.77;0.38;;;;;;;22.97;36.77;97883.28;5102884;28;20071;-66
2021/07/12 08:20:24;;;;;;;0.85;0.55;;;;;;;22.72;37.12;97901.88;5110601;28;20516;-67
2021/07/12 08:22:56;;;;;;;0.40;0.20;;;;;;;22.35;37.87;97882.78;5110941;28;20127;-67
2021/07/12 08:25:26;;;;;;;0.10;0.10;;;;;;;22.22;38.07;97889.41;5113803;28;20031;-66
2021/07/12 08:27:52;;;;;;;0.45;0.45;;;;;;;22.23;38.14;97891.84;5095224;28;20030;-67
2021/07/12 08:30:23;;;;;;;0.20;0.20;;;;;;;22.29;38.22;97884.09;5095896;28;20023;-67
2021/07/12 08:32:57;;;;;;;0.10;0.10;;;;;;;22.21;38.10;97891.34;5110181;28;20073;-64
2021/07/12 08:35:23;;;;;;;0.20;0.20;;;;;;;22.12;38.06;97893.38;5092440;28;20035;-65
2021/07/12 08:37:49;;;;;;;0.55;0.55;;;;;;;22.16;38.16;97887.94;5110420;28;20046;-65
2021/07/12 08:40:20;;;;;;;0.75;0.20;;;;;;;22.11;38.40;97888.09;5093047;28;20087;-66
2021/07/12 08:42:50;;;;;;;0.40;0.40;;;;;;;21.93;38.35;97884.56;5113198;28;20065;-66
2021/07/12 08:45:16;;;;;;;0.30;0.30;;;;;;;21.78;38.43;97899.88;5113110;28;20051;-66
2021/07/12 08:47:42;;;;;;;1.15;0.40;;;;;;;21.53;39.00;97894.78;5096028;28;20404;-67
2021/07/12 08:50:09;;;;;;;0.43;0.43;;;;;;;21.37;39.22;97901.19;5114009;28;20031;-64
2021/07/12 08:52:35;;;;;;;0.10;0.10;;;;;;;21.20;39.14;97893.63;5114289;28;20367;-63
2021/07/12 08:55:02;;;;;;;0.13;0.13;;;;;;;21.08;39.38;97883.09;5106052;28;20039;-62
2021/07/12 08:57:28;;;;;;;0.10;0.10;;;;;;;20.97;39.27;97890.97;5059837;28;20048;-66
2021/07/12 08:59:57;;;;;;;2.08;0.40;;;;;;;21.06;39.25;97857.50;5093893;28;20076;-69
2021/07/12 09:02:23;;;;;;;0.28;0.20;;;;;;;21.19;39.00;97870.47;5092513;28;20134;-62
2021/07/12 09:04:55;;;;;;;0.10;0.10;;;;;;;21.03;39.00;97858.16;5093001;28;20035;-64
2021/07/12 09:07:26;;;;;;;5.28;1.55;;;;;;;20.90;39.21;97866.31;5092398;28;20035;-65
2021/07/12 09:10:06;;;;;;;0.22;0.17;;;;;;;20.99;39.00;97897.03;5092784;28;20043;-65
2021/07/12 09:12:44;;;;;;;0.10;0.10;;;;;;;20.77;39.21;97875.66;5092150;28;20035;-63
2021/07/12 09:15:16;;;;;;;0.43;0.43;;;;;;;20.67;39.35;97874.03;5074511;28;20554;-62
2021/07/12 09:17:46;;;;;;;0.10;0.10;;;;;;;20.79;39.04;97860.25;5090922;28;20028;-63
2021/07/12 09:20:30;;;;;;;0.30;0.30;;;;;;;20.96;38.71;97887.34;5091148;28;20032;-63
2021/07/12 09:22:56;;;;;;;1.27;0.35;;;;;;;20.90;38.80;97885.06;5092115;28;20060;-63
2021/07/12 09:25:23;;;;;;;0.10;0.10;;;;;;;20.89;38.57;97887.03;5091721;28;20036;-66
2021/07/12 09:27:55;;;;;;;0.20;0.20;;;;;;;20.85;38.88;97868.44;5091577;28;20034;-68
2021/07/12 09:30:21;;;;;;;0.45;0.35;;;;;;;20.96;38.35;97864.22;5096913;28;20089;-63
2021/07/12 09:32:51;;;;;;;0.10;0.10;;;;;;;21.02;38.42;97876.03;5109779;28;20043;-62
2021/07/12 09:35:20;;;;;;;0.20;0.20;;;;;;;20.95;38.36;97880.13;5112009;28;20073;-63
2021/07/12 09:37:58;;;;;;;0.10;0.10;;;;;;;20.90;38.47;97862.72;5111943;28;20070;-64
2021/07/12 09:40:24;;;;;;;0.10;0.10;;;;;;;20.85;38.63;97857.28;5093691;28;20485;-63
2021/07/12 09:42:51;;;;;;;0.35;0.30;;;;;;;20.92;38.36;97868.78;5112884;28;20519;-64
2021/07/12 09:45:21;;;;;;;0.10;0.10;;;;;;;20.98;37.95;97859.94;5112285;28;20027;-67
2021/07/12 09:47:49;;;;;;;0.10;0.10;;;;;;;20.97;38.25;97877.84;5111933;28;20077;-62
2021/07/12 09:50:19;;;;;;;0.63;0.45;;;;;;;20.89;38.23;97878.66;5111916;28;20040;-62
2021/07/12 09:53:00;;;;;;;0.17;0.17;;;;;;;20.78;38.68;97868.94;5111833;28;20035;-65
2021/07/12 09:55:30;;;;;;;0.10;0.10;;;;;;;20.78;38.63;97866.16;5111837;28;20042;-63
2021/07/12 09:58:16;;;;;;;0.82;0.30;;;;;;;20.84;38.57;97867.63;5114906;28;20027;-62
2021/07/12 10:00:48;;;;;;;0.22;0.22;;;;;;;20.80;38.36;97856.31;5116232;28;20114;-65
2021/07/12 10:03:15;;;;;;;0.20;0.10;;;;;;;21.04;38.30;97865.34;5116199;28;20043;-65
2021/07/12 10:05:41;;;;;;;0.30;0.30;;;;;;;21.24;37.72;97867.50;5097829;28;20056;-66
2021/07/12 10:08:07;;;;;;;0.95;0.40;;;;;;;21.42;37.39;97864.69;5115818;28;20024;-66
2021/07/12 10:10:33;;;;;;;0.32;0.30;;;;;;;21.56;37.09;97854.22;5115758;28;20035;-65
2021/07/12 10:13:00;;;;;;;0.10;0.10;;;;;;;21.63;36.93;97854.53;5115749;28;20131;-65
2021/07/12 10:15:26;;;;;;;0.10;0.10;;;;;;;21.68;36.97;97884.25;5115839;28;20028;-65
2021/07/12 10:17:52;;;;;;;0.10;0.10;;;;;;;21.63;37.13;97854.53;5115749;28;20119;-64
2021/07/12 10:20:18;;;;;;;0.10;0.10;;;;;;;21.74;37.05;97848.59;5115733;28;20040;-65
2021/07/12 10:22:44;;;;;;;0.35;0.35;;;;;;;21.91;36.71;97881.25;5080554;28;20023;-66
2021/07/12 10:25:13;;;;;;;0.30;0.30;;;;;;;21.90;36.99;97849.69;5115670;28;20491;-67
2021/07/12 10:27:52;;;;;;;0.20;0.20;;;;;;;21.90;36.79;97852.50;5115900;28;20030;-66
2021/07/12 10:30:27;;;;;;;0.10;0.10;;;;;;;21.89;37.23;97834.06;5115941;28;20036;-66
2021/07/12 10:32:56;;;;;;;0.00;0.00;;;;;;;21.65;37.32;97855.00;5115313;28;20052;-64
2021/07/12 10:35:36;;;;;;;0.10;0.10;;;;;;;21.20;38.28;97860.94;5097162;28;20516;-66
2021/07/12 10:38:02;;;;;;;0.13;0.13;;;;;;;20.94;38.91;97852.56;5115382;28;20106;-66
2021/07/12 10:41:00;;;;;;;0.10;0.10;;;;;;;20.80;39.00;97861.91;5116013;28;20075;-67
2021/07/12 10:43:41;;;;;;;0.25;0.25;;;;;;;20.73;38.81;97849.56;5115290;28;20067;-68
2021/07/12 10:46:07;;;;;;;0.10;0.10;;;;;;;20.74;38.75;97854.00;5097159;28;20031;-65
2021/07/12 10:48:38;;;;;;;0.28;0.28;;;;;;;20.83;38.39;97858.47;5096915;28;20038;-65
2021/07/12 10:51:28;;;;;;;0.30;0.30;;;;;;;20.82;38.27;97848.44;5096681;28;20027;-66
2021/07/12 10:54:12;;;;;;;2.90;0.28;;;;;;;20.92;38.16;97850.09;5115118;28;20412;-66
2021/07/12 10:56:47;;;;;;;0.10;0.10;;;;;;;21.07;38.12;97848.78;5114576;28;20062;-66
2021/07/12 10:59:34;;;;;;;0.30;0.30;;;;;;;21.12;37.98;97845.00;5112377;27;20108;-65
2021/07/12 11:02:20;;;;;;;0.10;0.10;;;;;;;20.97;38.29;97865.84;5096470;28;20028;-67
2021/07/12 11:04:59;;;;;;;0.10;0.10;;;;;;;20.89;38.21;97859.13;5112309;28;20409;-67
2021/07/12 11:07:41;;;;;;;0.30;0.30;;;;;;;20.63;38.50;97843.13;5114097;28;20070;-68
2021/07/12 11:10:27;;;;;;;0.10;0.10;;;;;;;20.27;39.41;97844.19;5094455;28;20412;-66
2021/07/12 11:12:57;;;;;;;0.22;0.22;;;;;;;20.18;39.18;97865.59;5112982;28;20024;-65
2021/07/12 11:15:23;;;;;;;0.28;0.28;;;;;;;20.21;39.31;97855.78;5114103;28;20122;-65
2021/07/12 11:18:06;;;;;;;0.20;0.20;;;;;;;20.17;39.24;97855.63;5113741;28;20108;-64
2021/07/12 11:20:46;;;;;;;0.30;0.30;;;;;;;20.08;39.23;97854.75;5111212;28;20055;-65
2021/07/12 11:23:38;;;;;;;0.35;0.35;;;;;;;20.20;38.82;97846.63;5113634;28;20447;-66
2021/07/12 11:26:20;;;;;;;0.10;0.10;;;;;;;20.36;38.62;97857.31;5112866;28;20144;-65
2021/07/12 11:28:57;;;;;;;0.10;0.10;;;;;;;20.44;38.36;97865.72;5113033;28;20032;-65
2021/07/12 11:31:41;;;;;;;0.10;0.10;;;;;;;20.44;38.34;97862.91;5092600;28;20030;-64
2021/07/12 11:34:29;;;;;;;0.47;0.35;;;;;;;20.45;38.24;97864.56;5112555;28;20044;-65
2021/07/12 11:37:08;;;;;;;0.10;0.10;;;;;;;20.54;38.31;97856.22;5111439;28;20069;-64
2021/07/12 11:39:51;;;;;;;0.10;0.10;;;;;;;20.53;38.22;97859.34;5111221;28;20031;-65
2021/07/12 11:42:25;;;;;;;0.10;0.10;;;;;;;20.45;38.54;97849.78;5113705;28;20030;-65
2021/07/12 11:44:57;;;;;;;0.10;0.10;;;;;;;20.44;38.80;97865.72;5113748;28;20039;-66
2021/07/12 11:47:28;;;;;;;0.38;0.30;;;;;;;20.46;38.50;97851.44;5113312;28;20497;-67